Time;durP1;ratioP1;P1;durP2;ratioP2;P2;SDS_P1;SDS_P2;PMS_P1;PMS_P2;Temp;Humidity;BMP_temperature;BMP_pressure;BME280_temperature;BME280_humidity;BME280_pressure;Samples;Min_cycle;Max_cycle;Signal;HPM_P1;HPM_P2
2024/01/14 00:01:21;;;;;;;13.50;5.80;;;;;;;-128.00;-1.00;-1.00;100561;1285;1060451;-30
2024/01/14 00:03:46;;;;;;;13.80;6.80;;;;;;;-128.00;-1.00;-1.00;100492;1279;1003425;-32
2024/01/14 00:06:12;;;;;;;13.40;6.20;;;;;;;-128.00;-1.00;-1.00;100445;1284;1005432;-32
2024/01/14 00:08:37;;;;;;;13.80;6.90;;;;;;;-128.00;-1.00;-1.00;100530;1285;1003011;-35
2024/01/14 00:11:04;;;;;;;9.10;5.30;;;;;;;-128.00;-1.00;-1.00;100498;1280;1003456;-31
2024/01/14 00:13:29;;;;;;;6.80;5.20;;;;;;;-128.00;-1.00;-1.00;99982;1285;1004370;-31
2024/01/14 00:15:55;;;;;;;9.80;6.20;;;;;;;-128.00;-1.00;-1.00;100418;1284;1003322;-32
2024/01/14 00:18:20;;;;;;;12.90;6.20;;;;;;;-128.00;-1.00;-1.00;100478;1286;1003780;-31
2024/01/14 00:20:46;;;;;;;10.50;6.20;;;;;;;-128.00;-1.00;-1.00;100436;1285;1003612;-29
2024/01/14 00:23:11;;;;;;;13.00;5.60;;;;;;;-128.00;-1.00;-1.00;100509;1286;1003293;-30
2024/01/14 00:25:37;;;;;;;10.30;5.40;;;;;;;-128.00;-1.00;-1.00;100491;1285;1003572;-31
2024/01/14 00:28:03;;;;;;;13.60;5.20;;;;;;;-128.00;-1.00;-1.00;100541;1280;1003124;-32
2024/01/14 00:30:29;;;;;;;9.40;5.50;;;;;;;-128.00;-1.00;-1.00;100463;1280;1002883;-30
2024/01/14 00:32:55;;;;;;;10.70;5.50;;;;;;;-128.00;-1.00;-1.00;100584;1280;1003513;-30
2024/01/14 00:35:20;;;;;;;9.30;5.60;;;;;;;-128.00;-1.00;-1.00;100609;1280;1055242;-30
2024/01/14 00:37:47;;;;;;;9.40;5.00;;;;;;;-128.00;-1.00;-1.00;100534;1282;1004286;-31
2024/01/14 00:40:13;;;;;;;14.00;5.70;;;;;;;-128.00;-1.00;-1.00;100409;1285;1003120;-30
2024/01/14 00:42:39;;;;;;;9.90;5.00;;;;;;;-128.00;-1.00;-1.00;100522;1285;1003100;-32
2024/01/14 00:45:05;;;;;;;11.20;5.50;;;;;;;-128.00;-1.00;-1.00;100510;1285;1003483;-33
2024/01/14 00:47:30;;;;;;;10.50;6.10;;;;;;;-128.00;-1.00;-1.00;100645;1280;1056590;-32
2024/01/14 00:49:57;;;;;;;12.30;5.80;;;;;;;-128.00;-1.00;-1.00;100500;1285;1004063;-31
2024/01/14 00:52:23;;;;;;;13.00;5.20;;;;;;;-128.00;-1.00;-1.00;100526;1284;1003971;-30
2024/01/14 00:54:49;;;;;;;12.70;6.40;;;;;;;-128.00;-1.00;-1.00;100616;1285;1003657;-32
2024/01/14 00:57:15;;;;;;;8.40;4.90;;;;;;;-128.00;-1.00;-1.00;100452;1284;1060426;-31
2024/01/14 00:59:40;;;;;;;11.70;5.70;;;;;;;-128.00;-1.00;-1.00;100412;1280;1004917;-30
2024/01/14 01:02:06;;;;;;;9.40;5.50;;;;;;;-128.00;-1.00;-1.00;100463;1286;1002870;-31
2024/01/14 01:04:32;;;;;;;11.00;5.80;;;;;;;-128.00;-1.00;-1.00;100569;1285;1038176;-33
2024/01/14 01:06:57;;;;;;;11.80;6.30;;;;;;;-128.00;-1.00;-1.00;100282;1280;1003466;-33
2024/01/14 01:09:23;;;;;;;8.80;6.10;;;;;;;-128.00;-1.00;-1.00;100613;1285;1003176;-31
2024/01/14 01:11:48;;;;;;;11.80;5.90;;;;;;;-128.00;-1.00;-1.00;100413;1284;1058014;-31
2024/01/14 01:14:15;;;;;;;9.50;5.10;;;;;;;-128.00;-1.00;-1.00;100485;1280;1003254;-38
2024/01/14 01:16:41;;;;;;;13.00;6.40;;;;;;;-128.00;-1.00;-1.00;100479;1286;1005415;-32
2024/01/14 01:19:06;;;;;;;;;;;;;;;-128.00;-1.00;-1.00;100716;1285;1002515;-31
2024/01/14 01:21:32;;;;;;;9.50;4.90;;;;;;;-128.00;-1.00;-1.00;100487;1280;1002793;-31
2024/01/14 01:23:58;;;;;;;12.40;6.50;;;;;;;-128.00;-1.00;-1.00;100470;1285;1004370;-31
2024/01/14 01:26:23;;;;;;;11.50;5.30;;;;;;;-128.00;-1.00;-1.00;100540;1285;1039474;-31
2024/01/14 01:28:49;;;;;;;9.30;5.50;;;;;;;-128.00;-1.00;-1.00;100472;1280;1003365;-30
2024/01/14 01:31:14;;;;;;;10.00;5.90;;;;;;;-128.00;-1.00;-1.00;100609;1280;1003149;-30
2024/01/14 01:33:40;;;;;;;15.20;6.70;;;;;;;-128.00;-1.00;-1.00;100461;1280;1057989;-29
2024/01/14 01:36:06;;;;;;;11.30;5.30;;;;;;;-128.00;-1.00;-1.00;100483;1285;1003084;-31
2024/01/14 01:38:32;;;;;;;13.10;6.20;;;;;;;-128.00;-1.00;-1.00;100478;1286;1003189;-31
2024/01/14 01:40:58;;;;;;;;;;;;;;;-128.00;-1.00;-1.00;100481;1280;1060639;-31
2024/01/14 01:43:24;;;;;;;10.90;5.30;;;;;;;-128.00;-1.00;-1.00;100547;1280;1005103;-32
2024/01/14 01:45:49;;;;;;;13.80;6.20;;;;;;;-128.00;-1.00;-1.00;100486;1280;1003207;-32
2024/01/14 01:48:15;;;;;;;12.00;6.60;;;;;;;-128.00;-1.00;-1.00;100471;1286;1039195;-31
2024/01/14 01:50:42;;;;;;;12.50;5.90;;;;;;;-128.00;-1.00;-1.00;100638;1286;1003965;-31
2024/01/14 02:33:29;;;;;;;10.40;6.40;;;;;;;-1.04;100.00;98189.33;103450;1288;613639;-31
2024/01/14 02:35:55;;;;;;;10.00;5.90;;;;;;;-0.71;100.00;98176.02;103391;1298;116012;-30
2024/01/14 02:38:20;;;;;;;10.30;6.30;;;;;;;-128.00;-1.00;-1.00;100152;1286;1002843;-32
2024/01/14 02:40:46;;;;;;;10.40;5.80;;;;;;;-128.00;-1.00;-1.00;100172;1286;1004915;-32
2024/01/14 02:43:11;;;;;;;15.10;6.50;;;;;;;-128.00;-1.00;-1.00;100183;1284;1004000;-32
2024/01/14 02:45:37;;;;;;;13.70;5.80;;;;;;;-128.00;-1.00;-1.00;100116;1285;1003369;-33
2024/01/14 02:48:03;;;;;;;9.30;5.80;;;;;;;-128.00;-1.00;-1.00;100148;1285;1003475;-32
2024/01/14 02:50:29;;;;;;;10.20;5.90;;;;;;;-128.00;-1.00;-1.00;100194;1285;1003159;-29
2024/01/14 02:52:54;;;;;;;12.10;5.80;;;;;;;-128.00;-1.00;-1.00;100177;1284;1004834;-34
2024/01/14 02:55:20;;;;;;;14.70;5.90;;;;;;;-128.00;-1.00;-1.00;100096;1286;1002621;-31
2024/01/14 02:57:47;;;;;;;9.90;5.90;;;;;;;-128.00;-1.00;-1.00;100070;1286;1004062;-31
2024/01/14 03:00:13;;;;;;;9.30;5.60;;;;;;;-128.00;-1.00;-1.00;100126;1285;1047251;-32
2024/01/14 03:02:39;;;;;;;10.70;6.10;;;;;;;-128.00;-1.00;-1.00;100057;1285;1003042;-30
2024/01/14 03:05:06;;;;;;;9.40;5.30;;;;;;;-128.00;-1.00;-1.00;100036;1286;1002919;-31
2024/01/14 03:07:31;;;;;;;9.90;5.40;;;;;;;-128.00;-1.00;-1.00;100100;1286;1002896;-30
2024/01/14 03:09:57;;;;;;;10.00;6.10;;;;;;;-128.00;-1.00;-1.00;100127;1286;1003040;-33
2024/01/14 03:12:22;;;;;;;13.70;6.60;;;;;;;-128.00;-1.00;-1.00;99956;1286;1046775;-30
2024/01/14 03:14:48;;;;;;;10.20;5.70;;;;;;;-128.00;-1.00;-1.00;100235;1285;1003767;-30
2024/01/14 03:17:13;;;;;;;11.10;6.20;;;;;;;-128.00;-1.00;-1.00;100147;1286;1059392;-34
2024/01/14 03:19:39;;;;;;;10.90;4.90;;;;;;;-128.00;-1.00;-1.00;100169;1285;1003405;-32
2024/01/14 03:22:05;;;;;;;11.90;6.80;;;;;;;-128.00;-1.00;-1.00;100150;1285;1046502;-30
2024/01/14 03:24:31;;;;;;;11.00;6.20;;;;;;;-128.00;-1.00;-1.00;100101;1285;1003484;-32
2024/01/14 03:26:56;;;;;;;10.00;5.60;;;;;;;-128.00;-1.00;-1.00;100116;1285;1002676;-30
2024/01/14 03:29:22;;;;;;;15.60;6.50;;;;;;;-128.00;-1.00;-1.00;100110;1285;1013937;-31
2024/01/14 03:31:47;;;;;;;10.90;5.90;;;;;;;-128.00;-1.00;-1.00;100126;1286;1003252;-31
2024/01/14 03:34:13;;;;;;;11.20;6.40;;;;;;;-128.00;-1.00;-1.00;100129;1285;1003605;-30
2024/01/14 03:36:38;;;;;;;8.80;4.60;;;;;;;-128.00;-1.00;-1.00;100097;1285;1003303;-32
2024/01/14 03:39:05;;;;;;;10.80;5.00;;;;;;;-128.00;-1.00;-1.00;100093;1285;1003991;-33
2024/01/14 03:41:30;;;;;;;;;;;;;;;-128.00;-1.00;-1.00;100105;1284;1003890;-32
2024/01/14 03:43:56;;;;;;;9.00;5.00;;;;;;;-128.00;-1.00;-1.00;100096;1285;1003445;-33
2024/01/14 03:46:22;;;;;;;12.70;5.90;;;;;;;-128.00;-1.00;-1.00;100111;1284;1003885;-31
2024/01/14 03:48:48;;;;;;;;;;;;;;;-128.00;-1.00;-1.00;100043;1285;1058953;-33
2024/01/14 03:51:14;;;;;;;6.60;4.40;;;;;;;-128.00;-1.00;-1.00;100142;1286;1003573;-31
2024/01/14 03:53:39;;;;;;;8.20;4.50;;;;;;;-128.00;-1.00;-1.00;99825;1285;1046202;-31
2024/01/14 03:56:05;;;;;;;8.00;4.50;;;;;;;-128.00;-1.00;-1.00;100153;1285;1003601;-33
2024/01/14 03:58:31;;;;;;;7.30;3.40;;;;;;;-128.00;-1.00;-1.00;100179;1284;1003207;-33
2024/01/14 04:00:57;;;;;;;10.00;5.90;;;;;;;-128.00;-1.00;-1.00;100086;1285;1013518;-32
2024/01/14 04:03:25;;;;;;;6.80;5.70;;;;;;;-128.00;-1.00;-1.00;100106;1285;1038611;-31
2024/01/14 04:05:51;;;;;;;8.00;4.60;;;;;;;-128.00;-1.00;-1.00;100136;1286;1003967;-33
2024/01/14 04:08:16;;;;;;;9.60;6.10;;;;;;;-128.00;-1.00;-1.00;100215;1285;1002877;-33
2024/01/14 04:10:42;;;;;;;8.70;4.60;;;;;;;-128.00;-1.00;-1.00;100057;1285;1002782;-31
2024/01/14 04:13:07;;;;;;;6.60;5.20;;;;;;;-128.00;-1.00;-1.00;100112;1284;1003873;-32
2024/01/14 04:15:33;;;;;;;7.90;5.40;;;;;;;-128.00;-1.00;-1.00;100116;1284;1003921;-33
2024/01/14 04:17:59;;;;;;;7.80;5.90;;;;;;;-128.00;-1.00;-1.00;100085;1288;1003248;-31
2024/01/14 04:20:24;;;;;;;6.90;3.90;;;;;;;-128.00;-1.00;-1.00;100178;1285;1003344;-32
2024/01/14 04:22:50;;;;;;;8.20;5.10;;;;;;;-128.00;-1.00;-1.00;100116;1284;1013656;-32
2024/01/14 04:25:16;;;;;;;9.00;5.10;;;;;;;-128.00;-1.00;-1.00;100079;1285;1003349;-30
2024/01/14 04:27:42;;;;;;;10.10;5.20;;;;;;;-128.00;-1.00;-1.00;100098;1285;1002836;-30
2024/01/14 04:30:08;;;;;;;8.40;5.10;;;;;;;-128.00;-1.00;-1.00;100151;1285;1056509;-32
2024/01/14 04:32:33;;;;;;;;;;;;;;;-128.00;-1.00;-1.00;100114;1285;1003659;-32
2024/01/14 04:35:00;;;;;;;9.10;5.10;;;;;;;-128.00;-1.00;-1.00;100058;1291;1003492;-31
2024/01/14 04:37:26;;;;;;;8.30;5.00;;;;;;;-128.00;-1.00;-1.00;100061;1287;1003234;-30
2024/01/14 04:39:53;;;;;;;8.10;4.90;;;;;;;-128.00;-1.00;-1.00;100160;1285;1005037;-31
2024/01/14 04:42:19;;;;;;;7.90;4.70;;;;;;;-128.00;-1.00;-1.00;100145;1285;1054870;-30
2024/01/14 04:44:45;;;;;;;5.50;4.10;;;;;;;-128.00;-1.00;-1.00;100102;1284;1003786;-33
2024/01/14 04:47:10;;;;;;;11.00;4.90;;;;;;;-128.00;-1.00;-1.00;100095;1285;1003014;-32
2024/01/14 04:49:36;;;;;;;8.10;4.80;;;;;;;-128.00;-1.00;-1.00;100140;1285;1045884;-33
2024/01/14 04:52:02;;;;;;;9.20;6.40;;;;;;;-128.00;-1.00;-1.00;100104;1285;1004203;-32
2024/01/14 04:54:27;;;;;;;7.20;3.80;;;;;;;-128.00;-1.00;-1.00;100024;1285;1058936;-31
2024/01/14 04:56:53;;;;;;;6.10;4.60;;;;;;;-128.00;-1.00;-1.00;100087;1285;1003609;-32
2024/01/14 04:59:18;;;;;;;6.10;4.00;;;;;;;-128.00;-1.00;-1.00;100193;1285;1046016;-31
2024/01/14 05:01:44;;;;;;;6.90;4.70;;;;;;;-128.00;-1.00;-1.00;100119;1285;1004523;-31
2024/01/14 05:04:10;;;;;;;6.30;5.20;;;;;;;-128.00;-1.00;-1.00;100085;1284;1004825;-31
2024/01/14 05:06:36;;;;;;;7.30;4.10;;;;;;;-128.00;-1.00;-1.00;100077;1284;1012214;-32
2024/01/14 05:09:01;;;;;;;6.40;4.20;;;;;;;-128.00;-1.00;-1.00;100068;1284;1002940;-31
2024/01/14 05:11:27;;;;;;;8.80;4.70;;;;;;;-128.00;-1.00;-1.00;100134;1285;1003258;-36
2024/01/14 05:13:53;;;;;;;8.10;4.70;;;;;;;-128.00;-1.00;-1.00;100118;1285;1056122;-31
2024/01/14 05:16:19;;;;;;;6.30;4.00;;;;;;;-128.00;-1.00;-1.00;99980;1285;1004377;-30
2024/01/14 05:18:45;;;;;;;6.80;3.80;;;;;;;-128.00;-1.00;-1.00;100108;1284;1038507;-30
2024/01/14 05:21:16;;;;;;;5.10;3.40;;;;;;;-128.00;-1.00;-1.00;100012;1285;1003437;-30
2024/01/14 05:23:42;;;;;;;6.20;3.80;;;;;;;-128.00;-1.00;-1.00;100195;1282;1058914;-32
2024/01/14 05:26:07;;;;;;;6.00;3.40;;;;;;;-128.00;-1.00;-1.00;100214;1283;1003384;-32
2024/01/14 05:28:33;;;;;;;5.90;3.20;;;;;;;-128.00;-1.00;-1.00;100123;1283;1002846;-30
2024/01/14 05:30:59;;;;;;;6.50;3.80;;;;;;;-128.00;-1.00;-1.00;100143;1284;1003481;-31
2024/01/14 05:33:24;;;;;;;5.70;3.60;;;;;;;-128.00;-1.00;-1.00;100266;1283;1003131;-32
2024/01/14 05:35:50;;;;;;;5.20;3.90;;;;;;;-128.00;-1.00;-1.00;100216;1282;1056533;-30
2024/01/14 05:38:15;;;;;;;7.30;4.00;;;;;;;-128.00;-1.00;-1.00;100181;1283;1003398;-30
2024/01/14 05:40:41;;;;;;;7.60;3.80;;;;;;;-128.00;-1.00;-1.00;100196;1282;1004673;-30
2024/01/14 05:43:07;;;;;;;5.50;4.30;;;;;;;-128.00;-1.00;-1.00;100227;1283;1003535;-34
2024/01/14 05:45:32;;;;;;;5.80;3.30;;;;;;;-128.00;-1.00;-1.00;100303;1282;1003672;-35
2024/01/14 05:47:58;;;;;;;5.50;3.40;;;;;;;-128.00;-1.00;-1.00;100182;1283;1058743;-34
2024/01/14 05:50:23;;;;;;;4.30;3.00;;;;;;;-128.00;-1.00;-1.00;100231;1283;1003200;-34
2024/01/14 05:52:49;;;;;;;4.90;3.10;;;;;;;-128.00;-1.00;-1.00;100195;1282;1003833;-31
2024/01/14 05:55:14;;;;;;;5.60;3.30;;;;;;;-128.00;-1.00;-1.00;100240;1282;1003323;-32
2024/01/14 05:57:40;;;;;;;5.70;2.90;;;;;;;-128.00;-1.00;-1.00;99810;1283;1003281;-31
2024/01/14 06:00:06;;;;;;;4.00;2.40;;;;;;;-128.00;-1.00;-1.00;100176;1282;1003218;-33
2024/01/14 06:02:32;;;;;;;5.50;3.30;;;;;;;-128.00;-1.00;-1.00;100172;1283;1003342;-31
2024/01/14 06:04:58;;;;;;;6.60;2.90;;;;;;;-128.00;-1.00;-1.00;100225;1282;1003638;-31
2024/01/14 06:07:23;;;;;;;4.20;2.30;;;;;;;-128.00;-1.00;-1.00;100213;1283;1002836;-34
2024/01/14 06:09:49;;;;;;;4.60;2.90;;;;;;;-128.00;-1.00;-1.00;100162;1282;1058330;-29
2024/01/14 06:12:15;;;;;;;4.60;2.40;;;;;;;-128.00;-1.00;-1.00;100170;1282;1003809;-30
2024/01/14 06:14:41;;;;;;;3.30;2.40;;;;;;;-128.00;-1.00;-1.00;100228;1287;1003697;-33
2024/01/14 06:17:08;;;;;;;4.10;2.20;;;;;;;-128.00;-1.00;-1.00;100299;1282;1003178;-33
2024/01/14 06:19:34;;;;;;;3.40;2.40;;;;;;;-128.00;-1.00;-1.00;100207;1282;1055646;-31
2024/01/14 06:22:00;;;;;;;3.30;2.30;;;;;;;-128.00;-1.00;-1.00;100189;1283;1003033;-30
2024/01/14 06:24:26;;;;;;;;;;;;;;;-128.00;-1.00;-1.00;100221;1283;1003986;-30
2024/01/14 06:26:52;;;;;;;4.10;2.20;;;;;;;-128.00;-1.00;-1.00;100230;1287;1003547;-31
2024/01/14 06:29:18;;;;;;;3.90;2.30;;;;;;;-128.00;-1.00;-1.00;100223;1283;1059057;-30
2024/01/14 06:31:45;;;;;;;2.60;2.00;;;;;;;-128.00;-1.00;-1.00;100172;1283;1003893;-31
2024/01/14 06:34:11;;;;;;;4.10;2.10;;;;;;;-128.00;-1.00;-1.00;100122;1288;1004403;-31
2024/01/14 06:36:37;;;;;;;3.80;2.10;;;;;;;-128.00;-1.00;-1.00;99344;1283;1005137;-30
2024/01/14 06:39:05;;;;;;;;;;;;;;;-128.00;-1.00;-1.00;100183;1283;1005560;-34
2024/01/14 06:41:31;;;;;;;3.30;1.80;;;;;;;-128.00;-1.00;-1.00;100001;1282;1003997;-31
2024/01/14 06:43:56;;;;;;;2.60;1.70;;;;;;;-128.00;-1.00;-1.00;100107;1283;1002798;-31
2024/01/14 06:46:22;;;;;;;11.20;2.30;;;;;;;-128.00;-1.00;-1.00;100183;1283;1003828;-31
2024/01/14 06:48:48;;;;;;;3.00;1.90;;;;;;;-128.00;-1.00;-1.00;100145;1283;1012310;-32
2024/01/14 06:51:14;;;;;;;;;;;;;;;-128.00;-1.00;-1.00;100118;1282;1002418;-33
2024/01/14 06:53:40;;;;;;;3.20;2.30;;;;;;;-128.00;-1.00;-1.00;100167;1282;1003696;-31
2024/01/14 06:56:06;;;;;;;4.30;2.50;;;;;;;-128.00;-1.00;-1.00;100230;1282;1003346;-33
2024/01/14 06:58:33;;;;;;;2.90;2.30;;;;;;;-128.00;-1.00;-1.00;100242;1282;1059054;-31
2024/01/14 07:00:58;;;;;;;4.70;2.60;;;;;;;-128.00;-1.00;-1.00;100265;1283;1003105;-32
2024/01/14 07:03:24;;;;;;;3.80;2.00;;;;;;;-128.00;-1.00;-1.00;100316;1282;1003189;-31
2024/01/14 07:05:50;;;;;;;3.70;2.20;;;;;;;-128.00;-1.00;-1.00;100207;1283;1002590;-33
2024/01/14 07:08:15;;;;;;;;;;;;;;;-128.00;-1.00;-1.00;100296;1282;1055357;-35
2024/01/14 07:10:41;;;;;;;4.80;2.50;;;;;;;-128.00;-1.00;-1.00;100247;1282;1003448;-32
2024/01/14 07:13:07;;;;;;;3.60;2.00;;;;;;;-128.00;-1.00;-1.00;100233;1283;1039205;-32
2024/01/14 07:15:32;;;;;;;2.70;1.90;;;;;;;-128.00;-1.00;-1.00;100271;1283;1003128;-31
2024/01/14 07:17:58;;;;;;;3.10;2.40;;;;;;;-128.00;-1.00;-1.00;100193;1283;1003328;-31
2024/01/14 07:20:24;;;;;;;4.10;2.50;;;;;;;-128.00;-1.00;-1.00;100156;1283;1058646;-33
2024/01/14 07:22:50;;;;;;;2.60;1.80;;;;;;;-128.00;-1.00;-1.00;100060;1283;1004309;-32
2024/01/14 07:25:15;;;;;;;3.70;2.40;;;;;;;-128.00;-1.00;-1.00;100212;1286;1003153;-33
2024/01/14 07:27:41;;;;;;;3.80;3.00;;;;;;;-128.00;-1.00;-1.00;100191;1282;1060579;-32
2024/01/14 07:30:07;;;;;;;7.00;3.00;;;;;;;-128.00;-1.00;-1.00;100200;1282;1002764;-33
2024/01/14 07:32:33;;;;;;;3.80;1.90;;;;;;;-128.00;-1.00;-1.00;100150;1284;1013551;-33
2024/01/14 07:34:58;;;;;;;4.60;2.50;;;;;;;-128.00;-1.00;-1.00;100237;1288;1003713;-35
2024/01/14 07:37:24;;;;;;;3.50;2.00;;;;;;;-128.00;-1.00;-1.00;100203;1283;1060145;-32
2024/01/14 07:39:50;;;;;;;;;;;;;;;-128.00;-1.00;-1.00;100214;1282;1003768;-32
2024/01/14 07:42:16;;;;;;;4.60;2.40;;;;;;;-128.00;-1.00;-1.00;100301;1282;1003687;-35
2024/01/14 07:44:42;;;;;;;3.20;2.10;;;;;;;-128.00;-1.00;-1.00;100204;1288;1038611;-31
2024/01/14 07:47:08;;;;;;;4.30;2.40;;;;;;;-128.00;-1.00;-1.00;100192;1282;1003248;-33
2024/01/14 07:49:34;;;;;;;4.10;2.30;;;;;;;-128.00;-1.00;-1.00;100193;1283;1003485;-34
2024/01/14 07:52:00;;;;;;;4.60;2.50;;;;;;;-128.00;-1.00;-1.00;100203;1283;1003186;-36
2024/01/14 07:54:26;;;;;;;4.00;2.20;;;;;;;-128.00;-1.00;-1.00;100140;1282;1012815;-33
2024/01/14 07:56:52;;;;;;;4.50;3.10;;;;;;;-128.00;-1.00;-1.00;100270;1282;1002596;-34
2024/01/14 07:59:20;;;;;;;5.40;3.50;;;;;;;-128.00;-1.00;-1.00;100279;1282;1004440;-33
2024/01/14 08:01:46;;;;;;;5.40;3.10;;;;;;;-128.00;-1.00;-1.00;100099;1282;1055774;-31
2024/01/14 08:04:12;;;;;;;4.40;2.40;;;;;;;-128.00;-1.00;-1.00;100281;1282;1003534;-31
2024/01/14 08:06:37;;;;;;;12.40;7.20;;;;;;;-128.00;-1.00;-1.00;100209;1283;1038319;-31
2024/01/14 08:09:03;;;;;;;7.40;3.70;;;;;;;-128.00;-1.00;-1.00;100240;1287;1003704;-33
2024/01/14 08:11:29;;;;;;;4.80;2.70;;;;;;;-128.00;-1.00;-1.00;100278;1282;1004013;-31
2024/01/14 08:13:54;;;;;;;9.60;4.70;;;;;;;-128.00;-1.00;-1.00;100207;1282;1058789;-31
2024/01/14 08:16:20;;;;;;;6.90;2.90;;;;;;;-128.00;-1.00;-1.00;100243;1283;1003936;-31
2024/01/14 08:18:46;;;;;;;4.70;2.50;;;;;;;-128.00;-1.00;-1.00;100186;1287;1003326;-33
2024/01/14 08:21:11;;;;;;;7.30;3.80;;;;;;;-128.00;-1.00;-1.00;100172;1283;1060969;-31
2024/01/14 08:23:37;;;;;;;6.60;3.50;;;;;;;-128.00;-1.00;-1.00;100217;1282;1002720;-33
2024/01/14 08:26:03;;;;;;;9.00;3.30;;;;;;;-128.00;-1.00;-1.00;100203;1282;1002294;-33
2024/01/14 08:28:30;;;;;;;5.70;3.00;;;;;;;-128.00;-1.00;-1.00;100090;1287;1038663;-33
2024/01/14 08:30:56;;;;;;;7.40;4.20;;;;;;;-128.00;-1.00;-1.00;100225;1283;1003729;-33
2024/01/14 08:33:22;;;;;;;5.30;2.50;;;;;;;-128.00;-1.00;-1.00;100298;1283;1004215;-32
2024/01/14 08:35:47;;;;;;;4.50;2.80;;;;;;;-128.00;-1.00;-1.00;100251;1283;1004762;-36
2024/01/14 08:38:13;;;;;;;5.20;2.80;;;;;;;-128.00;-1.00;-1.00;100163;1282;1004020;-32
2024/01/14 08:40:38;;;;;;;7.50;3.60;;;;;;;-128.00;-1.00;-1.00;100157;1283;1003160;-31
2024/01/14 08:43:04;;;;;;;6.20;3.90;;;;;;;-128.00;-1.00;-1.00;100201;1283;1003483;-31
2024/01/14 08:45:29;;;;;;;17.50;10.00;;;;;;;-128.00;-1.00;-1.00;100253;1282;1003541;-33
2024/01/14 08:47:55;;;;;;;22.60;9.40;;;;;;;-128.00;-1.00;-1.00;100235;1282;1003592;-32
2024/01/14 08:50:21;;;;;;;26.60;14.10;;;;;;;-128.00;-1.00;-1.00;100232;1282;1003265;-32
2024/01/14 08:52:46;;;;;;;21.80;12.50;;;;;;;-128.00;-1.00;-1.00;100256;1283;1003646;-33
2024/01/14 08:55:13;;;;;;;33.10;15.80;;;;;;;-128.00;-1.00;-1.00;100242;1282;1002326;-31
2024/01/14 08:57:39;;;;;;;31.70;15.50;;;;;;;-128.00;-1.00;-1.00;100211;1287;1060773;-32
2024/01/14 09:00:06;;;;;;;29.40;14.70;;;;;;;-128.00;-1.00;-1.00;100312;1282;1003167;-33
2024/01/14 09:02:32;;;;;;;23.80;9.70;;;;;;;-128.00;-1.00;-1.00;100202;1283;1003385;-32
2024/01/14 09:04:57;;;;;;;9.80;3.20;;;;;;;-128.00;-1.00;-1.00;100278;1283;1003214;-31
2024/01/14 09:07:24;;;;;;;3.40;2.40;;;;;;;-128.00;-1.00;-1.00;100288;1287;1003493;-33
2024/01/14 09:09:49;;;;;;;;;;;;;;;-128.00;-1.00;-1.00;100225;1283;1059477;-31
2024/01/14 09:12:15;;;;;;;17.50;10.10;;;;;;;-128.00;-1.00;-1.00;100137;1283;1003077;-31
2024/01/14 09:14:40;;;;;;;17.10;11.80;;;;;;;-128.00;-1.00;-1.00;100159;1288;1002727;-30
2024/01/14 09:17:06;;;;;;;6.90;5.80;;;;;;;-128.00;-1.00;-1.00;100172;1282;1002450;-33
2024/01/14 09:19:32;;;;;;;8.80;4.40;;;;;;;-128.00;-1.00;-1.00;100218;1282;1002809;-31
2024/01/14 09:21:58;;;;;;;5.10;2.90;;;;;;;-128.00;-1.00;-1.00;100156;1283;1003167;-32
2024/01/14 09:24:24;;;;;;;4.90;2.90;;;;;;;-128.00;-1.00;-1.00;100225;1286;1038416;-32
2024/01/14 09:26:49;;;;;;;5.10;2.70;;;;;;;-128.00;-1.00;-1.00;100195;1282;1002618;-34
2024/01/14 09:29:15;;;;;;;5.70;2.60;;;;;;;-128.00;-1.00;-1.00;100235;1282;1004981;-34
2024/01/14 09:31:41;;;;;;;4.70;3.20;;;;;;;-128.00;-1.00;-1.00;100119;1282;1059415;-32
2024/01/14 09:34:06;;;;;;;7.80;4.00;;;;;;;-128.00;-1.00;-1.00;100153;1283;1003311;-37
2024/01/14 09:36:32;;;;;;;9.40;4.00;;;;;;;-128.00;-1.00;-1.00;100243;1288;1003474;-34
2024/01/14 09:38:58;;;;;;;;;;;;;;;-128.00;-1.00;-1.00;100227;1283;1060432;-32
2024/01/14 09:41:34;;;;;;;5.10;2.50;;;;;;;-128.00;-1.00;-1.00;100163;1283;1003374;-32
2024/01/14 09:44:00;;;;;;;6.10;3.70;;;;;;;-128.00;-1.00;-1.00;100137;1283;1058622;-33
2024/01/14 09:46:26;;;;;;;5.40;2.70;;;;;;;-128.00;-1.00;-1.00;100175;1282;1003516;-35
2024/01/14 09:48:51;;;;;;;5.30;2.80;;;;;;;-128.00;-1.00;-1.00;100217;1287;1003106;-32
2024/01/14 09:51:18;;;;;;;7.40;4.00;;;;;;;-128.00;-1.00;-1.00;100239;1282;1003212;-34
2024/01/14 09:53:43;;;;;;;4.90;2.30;;;;;;;-128.00;-1.00;-1.00;100074;1282;1003029;-33
2024/01/14 09:56:09;;;;;;;3.90;2.30;;;;;;;-128.00;-1.00;-1.00;100273;1287;1003393;-34
2024/01/14 09:58:35;;;;;;;5.00;2.50;;;;;;;-128.00;-1.00;-1.00;100199;1283;1004255;-34
2024/01/14 10:01:04;;;;;;;4.80;2.30;;;;;;;-128.00;-1.00;-1.00;100209;1288;1046544;-34
2024/01/14 10:03:30;;;;;;;4.90;2.50;;;;;;;-128.00;-1.00;-1.00;100232;1282;1003912;-33
2024/01/14 10:05:56;;;;;;;8.80;3.80;;;;;;;-128.00;-1.00;-1.00;100182;1283;1003831;-32
2024/01/14 10:08:22;;;;;;;6.60;2.20;;;;;;;-128.00;-1.00;-1.00;100229;1288;1003414;-33
2024/01/14 10:10:51;;;;;;;5.60;2.40;;;;;;;-128.00;-1.00;-1.00;100157;1288;1003317;-32
2024/01/14 10:13:16;;;;;;;4.00;2.00;;;;;;;-128.00;-1.00;-1.00;100262;1283;1005349;-32
2024/01/14 10:15:42;;;;;;;4.20;2.40;;;;;;;-128.00;-1.00;-1.00;100199;1282;1003074;-32
2024/01/14 10:18:08;;;;;;;5.70;3.90;;;;;;;-128.00;-1.00;-1.00;100197;1288;1003937;-32
2024/01/14 10:20:33;;;;;;;7.10;4.60;;;;;;;-128.00;-1.00;-1.00;100162;1285;1057803;-32
2024/01/14 10:22:59;;;;;;;5.90;3.20;;;;;;;-128.00;-1.00;-1.00;100225;1283;1003483;-33
2024/01/14 10:25:26;;;;;;;14.40;6.50;;;;;;;-128.00;-1.00;-1.00;100296;1283;1004045;-33
2024/01/14 10:27:52;;;;;;;7.70;3.80;;;;;;;-128.00;-1.00;-1.00;100280;1282;1060535;-33
2024/01/14 10:30:18;;;;;;;7.20;3.60;;;;;;;-128.00;-1.00;-1.00;100214;1282;1002618;-31
2024/01/14 10:32:44;;;;;;;7.40;3.30;;;;;;;-128.00;-1.00;-1.00;100181;1283;1003513;-34
2024/01/14 10:35:12;;;;;;;17.60;5.70;;;;;;;-128.00;-1.00;-1.00;100205;1287;1039397;-33
2024/01/14 10:37:39;;;;;;;12.30;4.50;;;;;;;-128.00;-1.00;-1.00;100119;1288;1047785;-33
2024/01/14 10:40:08;;;;;;;16.70;6.20;;;;;;;-128.00;-1.00;-1.00;100160;1282;1003282;-33
2024/01/14 10:42:36;;;;;;;11.90;5.40;;;;;;;-128.00;-1.00;-1.00;100238;1283;1057264;-33
2024/01/14 10:45:07;;;;;;;11.10;5.30;;;;;;;-128.00;-1.00;-1.00;100176;1282;1004087;-32
2024/01/14 10:47:35;;;;;;;4.60;2.10;;;;;;;-128.00;-1.00;-1.00;100262;1283;1013494;-31
2024/01/14 10:50:01;;;;;;;8.80;5.20;;;;;;;-128.00;-1.00;-1.00;100242;1287;1038119;-33
2024/01/14 10:52:28;;;;;;;;;;;;;;;-128.00;-1.00;-1.00;100245;1283;1003418;-33
2024/01/14 10:54:55;;;;;;;3.20;1.70;;;;;;;-128.00;-1.00;-1.00;100187;1282;1003144;-32
2024/01/14 10:57:34;;;;;;;5.90;3.00;;;;;;;-128.00;-1.00;-1.00;100171;1283;1003313;-33
2024/01/14 11:00:08;;;;;;;14.20;4.80;;;;;;;-128.00;-1.00;-1.00;100174;1283;1058370;-31
2024/01/14 11:02:35;;;;;;;11.00;4.10;;;;;;;-128.00;-1.00;-1.00;100204;1287;1012192;-32
2024/01/14 11:05:03;;;;;;;5.80;2.90;;;;;;;-128.00;-1.00;-1.00;100285;1283;1003042;-32
2024/01/14 11:07:32;;;;;;;6.60;2.10;;;;;;;-128.00;-1.00;-1.00;100232;1283;1003696;-31
2024/01/14 11:09:58;;;;;;;7.90;2.40;;;;;;;-128.00;-1.00;-1.00;100177;1283;1060737;-32
2024/01/14 11:12:29;;;;;;;6.00;2.40;;;;;;;-128.00;-1.00;-1.00;100161;1283;1003444;-33
2024/01/14 11:15:01;;;;;;;6.20;2.50;;;;;;;-128.00;-1.00;-1.00;100135;1288;1059863;-34
2024/01/14 11:17:50;;;;;;;3.90;2.60;;;;;;;-128.00;-1.00;-1.00;100122;1283;1012870;-34
2024/01/14 11:20:17;;;;;;;3.30;1.90;;;;;;;-128.00;-1.00;-1.00;100243;1282;1037961;-32
2024/01/14 11:22:42;;;;;;;4.10;2.20;;;;;;;-128.00;-1.00;-1.00;100133;1282;1003887;-34
2024/01/14 11:25:16;;;;;;;8.80;3.70;;;;;;;-128.00;-1.00;-1.00;100194;1283;1002674;-30
2024/01/14 11:27:41;;;;;;;19.00;7.30;;;;;;;-128.00;-1.00;-1.00;100180;1287;1056935;-34
2024/01/14 11:30:08;;;;;;;;;;;;;;;-128.00;-1.00;-1.00;100189;1283;1004157;-31
2024/01/14 11:32:34;;;;;;;5.70;2.60;;;;;;;-128.00;-1.00;-1.00;100256;1288;1003687;-34
2024/01/14 11:35:02;;;;;;;34.40;15.70;;;;;;;-128.00;-1.00;-1.00;100213;1288;1002312;-33
2024/01/14 11:37:40;;;;;;;24.80;13.30;;;;;;;-128.00;-1.00;-1.00;100169;1283;1002886;-32
2024/01/14 11:40:27;;;;;;;39.10;16.30;;;;;;;-128.00;-1.00;-1.00;100173;1282;1060183;-32
2024/01/14 11:43:00;;;;;;;9.00;4.40;;;;;;;-128.00;-1.00;-1.00;100167;1283;1055939;-31
2024/01/14 11:45:37;;;;;;;9.40;4.20;;;;;;;-128.00;-1.00;-1.00;100029;1283;1059436;-32
2024/01/14 11:48:05;;;;;;;4.10;3.10;;;;;;;-128.00;-1.00;-1.00;100169;1282;1012616;-31
2024/01/14 11:50:31;;;;;;;3.80;2.20;;;;;;;-128.00;-1.00;-1.00;100247;1287;1003151;-34
2024/01/14 11:52:58;;;;;;;4.70;2.70;;;;;;;-128.00;-1.00;-1.00;100004;1283;1004117;-32